sensor_id;sensor_type;location;lat;lon;timestamp;P1;durP1;ratioP1;P2;durP2;ratioP2
12145;SDS011;6136;47.032;15.398;2023-08-12T00:01:56;3.87;;;3.47;;
12145;SDS011;6136;47.032;15.398;2023-08-12T00:04:24;3.50;;;3.20;;
12145;SDS011;6136;47.032;15.398;2023-08-12T00:06:52;3.73;;;3.40;;
12145;SDS011;6136;47.032;15.398;2023-08-12T00:09:20;4.10;;;3.70;;
12145;SDS011;6136;47.032;15.398;2023-08-12T00:11:50;3.97;;;3.30;;
12145;SDS011;6136;47.032;15.398;2023-08-12T00:14:18;4.00;;;3.30;;
12145;SDS011;6136;47.032;15.398;2023-08-12T00:16:46;3.80;;;3.37;;
12145;SDS011;6136;47.032;15.398;2023-08-12T00:19:14;3.83;;;3.43;;
12145;SDS011;6136;47.032;15.398;2023-08-12T00:21:43;4.07;;;3.50;;
12145;SDS011;6136;47.032;15.398;2023-08-12T00:24:13;3.50;;;3.20;;
12145;SDS011;6136;47.032;15.398;2023-08-12T00:26:41;4.60;;;3.40;;
12145;SDS011;6136;47.032;15.398;2023-08-12T00:29:10;3.93;;;3.47;;
12145;SDS011;6136;47.032;15.398;2023-08-12T00:31:38;4.17;;;3.13;;
12145;SDS011;6136;47.032;15.398;2023-08-12T00:34:06;4.70;;;3.30;;
12145;SDS011;6136;47.032;15.398;2023-08-12T00:36:35;3.10;;;2.83;;
12145;SDS011;6136;47.032;15.398;2023-08-12T00:39:03;4.07;;;3.50;;
12145;SDS011;6136;47.032;15.398;2023-08-12T00:41:32;4.53;;;3.30;;
12145;SDS011;6136;47.032;15.398;2023-08-12T00:44:01;3.83;;;3.37;;
12145;SDS011;6136;47.032;15.398;2023-08-12T00:46:30;3.73;;;3.30;;
12145;SDS011;6136;47.032;15.398;2023-08-12T00:48:58;3.73;;;3.43;;
12145;SDS011;6136;47.032;15.398;2023-08-12T00:51:27;5.33;;;3.40;;
12145;SDS011;6136;47.032;15.398;2023-08-12T00:53:55;3.50;;;3.20;;
12145;SDS011;6136;47.032;15.398;2023-08-12T00:56:25;3.93;;;3.37;;
12145;SDS011;6136;47.032;15.398;2023-08-12T00:58:57;4.20;;;3.77;;
12145;SDS011;6136;47.032;15.398;2023-08-12T01:01:27;3.60;;;3.20;;
12145;SDS011;6136;47.032;15.398;2023-08-12T01:03:56;5.90;;;3.67;;
12145;SDS011;6136;47.032;15.398;2023-08-12T01:06:25;4.93;;;4.07;;
12145;SDS011;6136;47.032;15.398;2023-08-12T01:08:53;3.83;;;3.53;;
12145;SDS011;6136;47.032;15.398;2023-08-12T01:11:24;3.83;;;3.17;;
12145;SDS011;6136;47.032;15.398;2023-08-12T01:13:57;3.60;;;3.30;;
12145;SDS011;6136;47.032;15.398;2023-08-12T01:16:30;5.70;;;3.10;;
12145;SDS011;6136;47.032;15.398;2023-08-12T01:19:05;3.93;;;3.63;;
12145;SDS011;6136;47.032;15.398;2023-08-12T01:21:39;3.77;;;3.37;;
12145;SDS011;6136;47.032;15.398;2023-08-12T01:24:12;4.00;;;3.57;;
12145;SDS011;6136;47.032;15.398;2023-08-12T01:26:40;3.90;;;3.50;;
12145;SDS011;6136;47.032;15.398;2023-08-12T01:29:08;4.23;;;3.40;;
12145;SDS011;6136;47.032;15.398;2023-08-12T01:31:39;3.40;;;3.10;;
12145;SDS011;6136;47.032;15.398;2023-08-12T01:34:15;3.60;;;3.27;;
12145;SDS011;6136;47.032;15.398;2023-08-12T01:36:49;4.13;;;3.73;;
12145;SDS011;6136;47.032;15.398;2023-08-12T01:39:24;4.40;;;3.13;;
12145;SDS011;6136;47.032;15.398;2023-08-12T01:41:54;4.93;;;3.57;;
12145;SDS011;6136;47.032;15.398;2023-08-12T01:44:23;3.90;;;3.50;;
12145;SDS011;6136;47.032;15.398;2023-08-12T01:46:52;3.80;;;3.33;;
12145;SDS011;6136;47.032;15.398;2023-08-12T01:49:20;4.00;;;3.60;;
12145;SDS011;6136;47.032;15.398;2023-08-12T01:51:49;3.30;;;3.00;;
12145;SDS011;6136;47.032;15.398;2023-08-12T01:54:17;3.70;;;3.27;;
12145;SDS011;6136;47.032;15.398;2023-08-12T01:56:47;4.47;;;3.50;;
12145;SDS011;6136;47.032;15.398;2023-08-12T01:59:16;4.63;;;3.87;;
12145;SDS011;6136;47.032;15.398;2023-08-12T02:01:44;3.53;;;3.23;;
12145;SDS011;6136;47.032;15.398;2023-08-12T02:04:12;3.43;;;3.13;;
12145;SDS011;6136;47.032;15.398;2023-08-12T02:06:40;4.00;;;3.67;;
12145;SDS011;6136;47.032;15.398;2023-08-12T02:09:08;3.43;;;3.13;;
12145;SDS011;6136;47.032;15.398;2023-08-12T02:11:36;4.97;;;3.33;;
12145;SDS011;6136;47.032;15.398;2023-08-12T02:14:06;3.83;;;3.53;;
12145;SDS011;6136;47.032;15.398;2023-08-12T02:16:34;4.13;;;3.63;;
12145;SDS011;6136;47.032;15.398;2023-08-12T02:19:02;5.07;;;3.77;;
12145;SDS011;6136;47.032;15.398;2023-08-12T02:21:30;5.87;;;3.93;;
12145;SDS011;6136;47.032;15.398;2023-08-12T02:23:59;4.00;;;3.20;;
12145;SDS011;6136;47.032;15.398;2023-08-12T02:26:27;4.63;;;3.50;;
12145;SDS011;6136;47.032;15.398;2023-08-12T02:28:55;3.57;;;3.27;;
12145;SDS011;6136;47.032;15.398;2023-08-12T02:31:25;4.00;;;3.33;;
12145;SDS011;6136;47.032;15.398;2023-08-12T02:33:53;3.83;;;3.50;;
12145;SDS011;6136;47.032;15.398;2023-08-12T02:36:23;3.83;;;3.53;;
12145;SDS011;6136;47.032;15.398;2023-08-12T02:38:54;6.37;;;3.37;;
12145;SDS011;6136;47.032;15.398;2023-08-12T02:41:22;5.40;;;3.53;;
12145;SDS011;6136;47.032;15.398;2023-08-12T02:43:50;4.03;;;3.63;;
12145;SDS011;6136;47.032;15.398;2023-08-12T02:46:18;6.27;;;3.43;;
12145;SDS011;6136;47.032;15.398;2023-08-12T02:48:48;6.57;;;3.50;;
12145;SDS011;6136;47.032;15.398;2023-08-12T02:51:16;3.00;;;2.77;;
12145;SDS011;6136;47.032;15.398;2023-08-12T02:53:44;4.50;;;3.70;;
12145;SDS011;6136;47.032;15.398;2023-08-12T02:56:12;3.50;;;3.20;;
12145;SDS011;6136;47.032;15.398;2023-08-12T02:58:40;4.03;;;3.40;;
12145;SDS011;6136;47.032;15.398;2023-08-12T03:01:08;3.97;;;3.40;;
12145;SDS011;6136;47.032;15.398;2023-08-12T03:03:36;3.97;;;3.47;;
12145;SDS011;6136;47.032;15.398;2023-08-12T03:06:06;4.10;;;3.70;;
12145;SDS011;6136;47.032;15.398;2023-08-12T03:08:34;5.00;;;3.73;;
12145;SDS011;6136;47.032;15.398;2023-08-12T03:11:04;3.73;;;3.40;;
12145;SDS011;6136;47.032;15.398;2023-08-12T03:13:32;4.43;;;3.60;;
12145;SDS011;6136;47.032;15.398;2023-08-12T03:16:01;4.57;;;3.67;;
12145;SDS011;6136;47.032;15.398;2023-08-12T03:18:30;4.13;;;3.60;;
12145;SDS011;6136;47.032;15.398;2023-08-12T03:20:59;4.23;;;3.83;;
12145;SDS011;6136;47.032;15.398;2023-08-12T03:23:28;3.97;;;3.53;;
12145;SDS011;6136;47.032;15.398;2023-08-12T03:25:57;4.40;;;3.80;;
12145;SDS011;6136;47.032;15.398;2023-08-12T03:28:25;3.80;;;3.47;;
12145;SDS011;6136;47.032;15.398;2023-08-12T03:30:53;4.40;;;3.87;;
12145;SDS011;6136;47.032;15.398;2023-08-12T03:33:23;4.87;;;3.83;;
12145;SDS011;6136;47.032;15.398;2023-08-12T03:35:53;4.10;;;3.70;;
12145;SDS011;6136;47.032;15.398;2023-08-12T03:38:21;4.30;;;3.90;;
12145;SDS011;6136;47.032;15.398;2023-08-12T03:40:51;4.47;;;4.07;;
12145;SDS011;6136;47.032;15.398;2023-08-12T03:43:19;4.47;;;3.97;;
12145;SDS011;6136;47.032;15.398;2023-08-12T03:45:49;6.53;;;3.53;;
12145;SDS011;6136;47.032;15.398;2023-08-12T03:48:18;5.83;;;4.43;;
12145;SDS011;6136;47.032;15.398;2023-08-12T03:50:46;5.87;;;3.90;;
12145;SDS011;6136;47.032;15.398;2023-08-12T03:53:15;4.27;;;3.87;;
12145;SDS011;6136;47.032;15.398;2023-08-12T03:55:44;4.80;;;4.33;;
12145;SDS011;6136;47.032;15.398;2023-08-12T03:58:16;4.93;;;3.73;;
12145;SDS011;6136;47.032;15.398;2023-08-12T04:00:45;5.40;;;4.07;;
12145;SDS011;6136;47.032;15.398;2023-08-12T04:03:14;4.23;;;3.83;;
12145;SDS011;6136;47.032;15.398;2023-08-12T04:05:49;4.50;;;4.10;;
12145;SDS011;6136;47.032;15.398;2023-08-12T04:08:19;5.17;;;4.37;;
12145;SDS011;6136;47.032;15.398;2023-08-12T04:10:50;4.90;;;4.20;;
12145;SDS011;6136;47.032;15.398;2023-08-12T04:13:20;4.83;;;4.40;;
12145;SDS011;6136;47.032;15.398;2023-08-12T04:15:48;5.30;;;4.57;;
12145;SDS011;6136;47.032;15.398;2023-08-12T04:18:17;4.50;;;4.10;;
12145;SDS011;6136;47.032;15.398;2023-08-12T04:20:46;4.53;;;4.13;;
12145;SDS011;6136;47.032;15.398;2023-08-12T04:23:14;5.37;;;4.60;;
12145;SDS011;6136;47.032;15.398;2023-08-12T04:25:43;4.23;;;3.70;;
12145;SDS011;6136;47.032;15.398;2023-08-12T04:28:13;5.17;;;4.67;;
12145;SDS011;6136;47.032;15.398;2023-08-12T04:30:43;5.43;;;4.50;;
12145;SDS011;6136;47.032;15.398;2023-08-12T04:33:14;6.47;;;4.53;;
12145;SDS011;6136;47.032;15.398;2023-08-12T04:35:42;5.63;;;4.63;;
12145;SDS011;6136;47.032;15.398;2023-08-12T04:38:11;5.03;;;4.33;;
12145;SDS011;6136;47.032;15.398;2023-08-12T04:40:41;4.87;;;4.37;;
12145;SDS011;6136;47.032;15.398;2023-08-12T04:43:09;4.73;;;4.20;;
12145;SDS011;6136;47.032;15.398;2023-08-12T04:45:37;5.27;;;4.10;;
12145;SDS011;6136;47.032;15.398;2023-08-12T04:48:07;4.83;;;4.33;;
12145;SDS011;6136;47.032;15.398;2023-08-12T04:50:37;5.70;;;5.17;;
12145;SDS011;6136;47.032;15.398;2023-08-12T04:53:05;6.87;;;5.30;;
12145;SDS011;6136;47.032;15.398;2023-08-12T04:55:33;5.47;;;4.83;;
12145;SDS011;6136;47.032;15.398;2023-08-12T04:58:02;5.07;;;4.57;;
12145;SDS011;6136;47.032;15.398;2023-08-12T05:00:31;6.87;;;5.30;;
12145;SDS011;6136;47.032;15.398;2023-08-12T05:03:00;5.13;;;4.63;;
12145;SDS011;6136;47.032;15.398;2023-08-12T05:05:30;5.03;;;4.47;;
12145;SDS011;6136;47.032;15.398;2023-08-12T05:07:58;6.03;;;5.00;;
12145;SDS011;6136;47.032;15.398;2023-08-12T05:10:27;5.97;;;5.23;;
12145;SDS011;6136;47.032;15.398;2023-08-12T05:12:56;5.40;;;4.87;;
12145;SDS011;6136;47.032;15.398;2023-08-12T05:15:26;4.77;;;4.37;;
12145;SDS011;6136;47.032;15.398;2023-08-12T05:17:54;5.73;;;5.07;;
12145;SDS011;6136;47.032;15.398;2023-08-12T05:20:22;8.77;;;5.00;;
12145;SDS011;6136;47.032;15.398;2023-08-12T05:22:52;6.40;;;4.97;;
12145;SDS011;6136;47.032;15.398;2023-08-12T05:25:20;6.60;;;5.23;;
12145;SDS011;6136;47.032;15.398;2023-08-12T05:27:49;6.10;;;5.50;;
12145;SDS011;6136;47.032;15.398;2023-08-12T05:30:17;7.70;;;4.97;;
12145;SDS011;6136;47.032;15.398;2023-08-12T05:32:45;8.40;;;4.53;;
12145;SDS011;6136;47.032;15.398;2023-08-12T05:35:13;6.30;;;5.10;;
12145;SDS011;6136;47.032;15.398;2023-08-12T05:37:42;5.63;;;5.07;;
12145;SDS011;6136;47.032;15.398;2023-08-12T05:40:11;6.57;;;5.57;;
12145;SDS011;6136;47.032;15.398;2023-08-12T05:42:39;6.33;;;5.67;;
12145;SDS011;6136;47.032;15.398;2023-08-12T05:45:08;5.57;;;5.07;;
12145;SDS011;6136;47.032;15.398;2023-08-12T05:47:37;6.07;;;5.47;;
12145;SDS011;6136;47.032;15.398;2023-08-12T05:50:05;7.40;;;4.97;;
12145;SDS011;6136;47.032;15.398;2023-08-12T05:52:34;7.13;;;5.93;;
12145;SDS011;6136;47.032;15.398;2023-08-12T05:55:02;7.37;;;5.13;;
12145;SDS011;6136;47.032;15.398;2023-08-12T05:57:33;7.23;;;5.60;;
12145;SDS011;6136;47.032;15.398;2023-08-12T06:00:01;6.77;;;5.47;;
12145;SDS011;6136;47.032;15.398;2023-08-12T06:02:36;8.37;;;5.00;;
12145;SDS011;6136;47.032;15.398;2023-08-12T06:05:05;6.23;;;5.43;;
12145;SDS011;6136;47.032;15.398;2023-08-12T06:07:34;8.50;;;5.50;;
12145;SDS011;6136;47.032;15.398;2023-08-12T06:10:02;7.93;;;5.33;;
12145;SDS011;6136;47.032;15.398;2023-08-12T06:12:32;5.83;;;5.27;;
12145;SDS011;6136;47.032;15.398;2023-08-12T06:15:00;5.07;;;4.67;;
12145;SDS011;6136;47.032;15.398;2023-08-12T06:17:29;7.55;;;5.57;;
12145;SDS011;6136;47.032;15.398;2023-08-12T06:19:57;5.77;;;5.17;;
12145;SDS011;6136;47.032;15.398;2023-08-12T06:22:25;5.37;;;4.80;;
12145;SDS011;6136;47.032;15.398;2023-08-12T06:24:53;5.63;;;5.13;;
12145;SDS011;6136;47.032;15.398;2023-08-12T06:27:21;6.32;;;4.57;;
12145;SDS011;6136;47.032;15.398;2023-08-12T06:29:51;4.72;;;4.32;;
12145;SDS011;6136;47.032;15.398;2023-08-12T06:32:19;4.72;;;4.28;;
12145;SDS011;6136;47.032;15.398;2023-08-12T06:34:47;5.32;;;4.82;;
12145;SDS011;6136;47.032;15.398;2023-08-12T06:37:15;6.38;;;4.32;;
12145;SDS011;6136;47.032;15.398;2023-08-12T06:39:44;8.18;;;4.72;;
12145;SDS011;6136;47.032;15.398;2023-08-12T06:42:12;4.95;;;4.38;;
12145;SDS011;6136;47.032;15.398;2023-08-12T06:44:40;5.85;;;4.43;;
12145;SDS011;6136;47.032;15.398;2023-08-12T06:47:09;7.82;;;4.65;;
12145;SDS011;6136;47.032;15.398;2023-08-12T06:49:38;5.13;;;4.53;;
12145;SDS011;6136;47.032;15.398;2023-08-12T06:52:06;5.80;;;4.13;;
12145;SDS011;6136;47.032;15.398;2023-08-12T06:54:34;5.15;;;4.63;;
12145;SDS011;6136;47.032;15.398;2023-08-12T06:57:02;4.90;;;4.18;;
12145;SDS011;6136;47.032;15.398;2023-08-12T06:59:31;7.30;;;3.90;;
12145;SDS011;6136;47.032;15.398;2023-08-12T07:01:59;4.38;;;3.97;;
12145;SDS011;6136;47.032;15.398;2023-08-12T07:04:28;4.47;;;4.07;;
12145;SDS011;6136;47.032;15.398;2023-08-12T07:06:56;4.43;;;4.00;;
12145;SDS011;6136;47.032;15.398;2023-08-12T07:09:24;4.55;;;4.13;;
12145;SDS011;6136;47.032;15.398;2023-08-12T07:11:52;6.72;;;4.13;;
12145;SDS011;6136;47.032;15.398;2023-08-12T07:14:20;4.40;;;4.00;;
12145;SDS011;6136;47.032;15.398;2023-08-12T07:16:48;6.82;;;4.05;;
12145;SDS011;6136;47.032;15.398;2023-08-12T07:19:17;4.70;;;4.30;;
12145;SDS011;6136;47.032;15.398;2023-08-12T07:21:46;4.40;;;3.72;;
12145;SDS011;6136;47.032;15.398;2023-08-12T07:24:14;4.43;;;3.40;;
12145;SDS011;6136;47.032;15.398;2023-08-12T07:26:43;5.00;;;3.97;;
12145;SDS011;6136;47.032;15.398;2023-08-12T07:29:11;4.13;;;3.72;;
12145;SDS011;6136;47.032;15.398;2023-08-12T07:31:39;4.82;;;4.32;;
12145;SDS011;6136;47.032;15.398;2023-08-12T07:34:07;5.28;;;4.15;;
12145;SDS011;6136;47.032;15.398;2023-08-12T07:36:39;4.38;;;3.97;;
12145;SDS011;6136;47.032;15.398;2023-08-12T07:39:09;4.15;;;3.70;;
12145;SDS011;6136;47.032;15.398;2023-08-12T07:41:37;3.90;;;3.50;;
12145;SDS011;6136;47.032;15.398;2023-08-12T07:44:05;4.82;;;3.88;;
12145;SDS011;6136;47.032;15.398;2023-08-12T07:46:33;3.60;;;3.30;;
12145;SDS011;6136;47.032;15.398;2023-08-12T07:49:02;3.90;;;3.55;;
12145;SDS011;6136;47.032;15.398;2023-08-12T07:51:30;3.63;;;3.33;;
12145;SDS011;6136;47.032;15.398;2023-08-12T07:53:58;3.90;;;3.50;;
12145;SDS011;6136;47.032;15.398;2023-08-12T07:56:28;3.65;;;3.35;;
12145;SDS011;6136;47.032;15.398;2023-08-12T07:58:56;5.18;;;2.85;;
12145;SDS011;6136;47.032;15.398;2023-08-12T08:01:24;6.03;;;3.97;;
12145;SDS011;6136;47.032;15.398;2023-08-12T08:03:52;3.42;;;3.13;;
12145;SDS011;6136;47.032;15.398;2023-08-12T08:06:21;3.45;;;3.15;;
12145;SDS011;6136;47.032;15.398;2023-08-12T08:08:50;3.38;;;3.08;;
12145;SDS011;6136;47.032;15.398;2023-08-12T08:11:18;3.85;;;3.45;;
12145;SDS011;6136;47.032;15.398;2023-08-12T08:13:47;3.80;;;3.50;;
12145;SDS011;6136;47.032;15.398;2023-08-12T08:16:16;4.07;;;3.40;;
12145;SDS011;6136;47.032;15.398;2023-08-12T08:18:44;3.50;;;3.08;;
12145;SDS011;6136;47.032;15.398;2023-08-12T08:21:12;4.30;;;3.47;;
12145;SDS011;6136;47.032;15.398;2023-08-12T08:23:40;3.75;;;3.20;;
12145;SDS011;6136;47.032;15.398;2023-08-12T08:26:08;3.63;;;3.22;;
12145;SDS011;6136;47.032;15.398;2023-08-12T08:28:37;3.05;;;2.75;;
12145;SDS011;6136;47.032;15.398;2023-08-12T08:31:07;4.22;;;2.83;;
12145;SDS011;6136;47.032;15.398;2023-08-12T08:33:35;3.25;;;2.90;;
12145;SDS011;6136;47.032;15.398;2023-08-12T08:36:03;5.95;;;3.10;;
12145;SDS011;6136;47.032;15.398;2023-08-12T08:38:32;2.85;;;2.65;;
12145;SDS011;6136;47.032;15.398;2023-08-12T08:41:00;5.07;;;3.20;;
12145;SDS011;6136;47.032;15.398;2023-08-12T08:43:29;3.15;;;2.95;;
12145;SDS011;6136;47.032;15.398;2023-08-12T08:45:59;3.55;;;2.78;;
12145;SDS011;6136;47.032;15.398;2023-08-12T08:48:29;2.70;;;2.50;;
12145;SDS011;6136;47.032;15.398;2023-08-12T08:50:57;2.97;;;2.70;;
12145;SDS011;6136;47.032;15.398;2023-08-12T08:53:27;2.92;;;2.70;;
12145;SDS011;6136;47.032;15.398;2023-08-12T08:55:56;3.42;;;3.13;;
12145;SDS011;6136;47.032;15.398;2023-08-12T08:58:27;3.72;;;3.15;;
12145;SDS011;6136;47.032;15.398;2023-08-12T09:00:55;3.13;;;2.92;;
12145;SDS011;6136;47.032;15.398;2023-08-12T09:03:23;3.00;;;2.80;;
12145;SDS011;6136;47.032;15.398;2023-08-12T09:05:54;3.20;;;2.90;;
12145;SDS011;6136;47.032;15.398;2023-08-12T09:08:23;3.30;;;3.10;;
12145;SDS011;6136;47.032;15.398;2023-08-12T09:10:53;3.03;;;2.72;;
12145;SDS011;6136;47.032;15.398;2023-08-12T09:13:22;2.70;;;2.50;;
12145;SDS011;6136;47.032;15.398;2023-08-12T09:15:50;5.00;;;2.78;;
12145;SDS011;6136;47.032;15.398;2023-08-12T09:18:19;3.28;;;2.97;;
12145;SDS011;6136;47.032;15.398;2023-08-12T09:20:50;3.45;;;3.08;;
12145;SDS011;6136;47.032;15.398;2023-08-12T09:23:20;3.15;;;2.95;;
12145;SDS011;6136;47.032;15.398;2023-08-12T09:25:48;3.40;;;3.10;;
12145;SDS011;6136;47.032;15.398;2023-08-12T09:28:16;5.50;;;2.80;;
12145;SDS011;6136;47.032;15.398;2023-08-12T09:30:49;3.00;;;2.80;;
12145;SDS011;6136;47.032;15.398;2023-08-12T09:33:23;3.00;;;2.80;;
12145;SDS011;6136;47.032;15.398;2023-08-12T09:35:52;3.38;;;2.90;;
12145;SDS011;6136;47.032;15.398;2023-08-12T09:38:25;3.33;;;3.13;;
12145;SDS011;6136;47.032;15.398;2023-08-12T09:40:53;3.22;;;2.97;;
12145;SDS011;6136;47.032;15.398;2023-08-12T09:43:23;3.70;;;3.10;;
12145;SDS011;6136;47.032;15.398;2023-08-12T09:45:51;3.42;;;3.13;;
12145;SDS011;6136;47.032;15.398;2023-08-12T09:48:23;3.35;;;3.10;;
12145;SDS011;6136;47.032;15.398;2023-08-12T09:50:52;3.17;;;2.90;;
12145;SDS011;6136;47.032;15.398;2023-08-12T09:53:21;3.97;;;3.30;;
12145;SDS011;6136;47.032;15.398;2023-08-12T09:55:51;3.13;;;2.92;;
12145;SDS011;6136;47.032;15.398;2023-08-12T09:58:20;3.38;;;3.05;;
12145;SDS011;6136;47.032;15.398;2023-08-12T10:00:52;3.60;;;3.40;;
12145;SDS011;6136;47.032;15.398;2023-08-12T10:03:20;3.45;;;3.15;;
12145;SDS011;6136;47.032;15.398;2023-08-12T10:05:50;3.83;;;3.53;;
12145;SDS011;6136;47.032;15.398;2023-08-12T10:08:19;3.38;;;3.08;;
12145;SDS011;6136;47.032;15.398;2023-08-12T10:10:48;3.88;;;3.67;;
12145;SDS011;6136;47.032;15.398;2023-08-12T10:13:30;3.53;;;3.22;;
12145;SDS011;6136;47.032;15.398;2023-08-12T10:15:58;3.88;;;3.58;;
12145;SDS011;6136;47.032;15.398;2023-08-12T10:18:27;3.63;;;3.33;;
12145;SDS011;6136;47.032;15.398;2023-08-12T10:20:57;3.80;;;3.35;;
12145;SDS011;6136;47.032;15.398;2023-08-12T10:23:27;3.35;;;3.15;;
12145;SDS011;6136;47.032;15.398;2023-08-12T10:25:57;3.40;;;3.10;;
12145;SDS011;6136;47.032;15.398;2023-08-12T10:28:30;3.60;;;3.35;;
12145;SDS011;6136;47.032;15.398;2023-08-12T10:31:03;3.42;;;3.22;;
12145;SDS011;6136;47.032;15.398;2023-08-12T10:33:34;3.47;;;3.28;;
12145;SDS011;6136;47.032;15.398;2023-08-12T10:36:04;3.45;;;3.15;;
12145;SDS011;6136;47.032;15.398;2023-08-12T10:38:33;3.15;;;2.95;;
12145;SDS011;6136;47.032;15.398;2023-08-12T10:41:18;3.55;;;3.35;;
12145;SDS011;6136;47.032;15.398;2023-08-12T10:43:55;3.40;;;3.20;;
12145;SDS011;6136;47.032;15.398;2023-08-12T10:46:30;3.35;;;3.15;;
12145;SDS011;6136;47.032;15.398;2023-08-12T10:49:02;3.50;;;3.20;;
12145;SDS011;6136;47.032;15.398;2023-08-12T10:51:43;4.93;;;3.20;;
12145;SDS011;6136;47.032;15.398;2023-08-12T10:54:22;3.72;;;3.53;;
12145;SDS011;6136;47.032;15.398;2023-08-12T10:57:06;3.95;;;3.22;;
12145;SDS011;6136;47.032;15.398;2023-08-12T10:59:48;3.17;;;2.97;;
12145;SDS011;6136;47.032;15.398;2023-08-12T11:02:31;3.45;;;3.15;;
12145;SDS011;6136;47.032;15.398;2023-08-12T11:05:01;3.15;;;2.95;;
12145;SDS011;6136;47.032;15.398;2023-08-12T11:07:34;3.03;;;2.83;;
12145;SDS011;6136;47.032;15.398;2023-08-12T11:10:09;3.28;;;3.08;;
12145;SDS011;6136;47.032;15.398;2023-08-12T11:12:40;3.45;;;3.15;;
12145;SDS011;6136;47.032;15.398;2023-08-12T11:15:10;3.95;;;3.10;;
12145;SDS011;6136;47.032;15.398;2023-08-12T11:17:40;4.43;;;3.17;;
12145;SDS011;6136;47.032;15.398;2023-08-12T11:20:10;3.33;;;3.03;;
12145;SDS011;6136;47.032;15.398;2023-08-12T11:22:40;3.42;;;3.22;;
12145;SDS011;6136;47.032;15.398;2023-08-12T11:25:09;3.55;;;3.00;;
12145;SDS011;6136;47.032;15.398;2023-08-12T11:27:39;3.20;;;3.00;;
12145;SDS011;6136;47.032;15.398;2023-08-12T11:30:11;3.33;;;3.13;;
12145;SDS011;6136;47.032;15.398;2023-08-12T11:32:42;3.22;;;3.03;;
12145;SDS011;6136;47.032;15.398;2023-08-12T11:35:11;3.40;;;3.20;;
12145;SDS011;6136;47.032;15.398;2023-08-12T11:37:41;3.30;;;3.10;;
12145;SDS011;6136;47.032;15.398;2023-08-12T11:40:10;3.78;;;3.38;;
12145;SDS011;6136;47.032;15.398;2023-08-12T11:42:41;3.20;;;2.90;;
12145;SDS011;6136;47.032;15.398;2023-08-12T11:45:13;3.97;;;3.65;;
12145;SDS011;6136;47.032;15.398;2023-08-12T11:47:44;3.95;;;3.65;;
12145;SDS011;6136;47.032;15.398;2023-08-12T11:50:13;3.42;;;3.13;;
12145;SDS011;6136;47.032;15.398;2023-08-12T11:52:41;3.65;;;3.35;;
12145;SDS011;6136;47.032;15.398;2023-08-12T11:55:10;3.28;;;2.95;;
12145;SDS011;6136;47.032;15.398;2023-08-12T11:57:38;3.22;;;2.92;;
12145;SDS011;6136;47.032;15.398;2023-08-12T12:00:08;3.05;;;2.85;;
12145;SDS011;6136;47.032;15.398;2023-08-12T12:02:46;3.22;;;2.95;;
12145;SDS011;6136;47.032;15.398;2023-08-12T12:05:17;3.40;;;3.10;;
12145;SDS011;6136;47.032;15.398;2023-08-12T12:07:49;3.17;;;2.97;;
12145;SDS011;6136;47.032;15.398;2023-08-12T12:10:18;3.38;;;3.15;;
12145;SDS011;6136;47.032;15.398;2023-08-12T12:12:48;2.88;;;2.67;;
12145;SDS011;6136;47.032;15.398;2023-08-12T12:15:16;3.10;;;2.90;;
12145;SDS011;6136;47.032;15.398;2023-08-12T12:17:46;3.35;;;3.15;;
12145;SDS011;6136;47.032;15.398;2023-08-12T12:20:15;4.03;;;3.20;;
12145;SDS011;6136;47.032;15.398;2023-08-12T12:22:44;3.85;;;3.00;;
12145;SDS011;6136;47.032;15.398;2023-08-12T12:25:13;3.13;;;2.92;;
12145;SDS011;6136;47.032;15.398;2023-08-12T12:27:42;7.25;;;6.75;;
12145;SDS011;6136;47.032;15.398;2023-08-12T12:30:13;3.15;;;2.95;;
12145;SDS011;6136;47.032;15.398;2023-08-12T12:32:42;3.60;;;3.30;;
12145;SDS011;6136;47.032;15.398;2023-08-12T12:35:13;2.92;;;2.72;;
12145;SDS011;6136;47.032;15.398;2023-08-12T12:37:41;3.97;;;2.92;;
12145;SDS011;6136;47.032;15.398;2023-08-12T12:40:10;3.20;;;2.90;;
12145;SDS011;6136;47.032;15.398;2023-08-12T12:42:38;4.20;;;3.13;;
12145;SDS011;6136;47.032;15.398;2023-08-12T12:45:07;2.92;;;2.72;;
12145;SDS011;6136;47.032;15.398;2023-08-12T12:47:36;3.15;;;2.92;;
12145;SDS011;6136;47.032;15.398;2023-08-12T12:50:05;2.72;;;2.60;;
12145;SDS011;6136;47.032;15.398;2023-08-12T12:52:35;2.95;;;2.35;;
12145;SDS011;6136;47.032;15.398;2023-08-12T12:55:04;2.80;;;2.60;;
12145;SDS011;6136;47.032;15.398;2023-08-12T12:57:32;2.80;;;2.60;;
12145;SDS011;6136;47.032;15.398;2023-08-12T13:00:01;3.35;;;2.78;;
12145;SDS011;6136;47.032;15.398;2023-08-12T13:02:30;2.90;;;2.70;;
12145;SDS011;6136;47.032;15.398;2023-08-12T13:04:59;2.78;;;2.58;;
12145;SDS011;6136;47.032;15.398;2023-08-12T13:07:27;2.63;;;2.42;;
12145;SDS011;6136;47.032;15.398;2023-08-12T13:09:56;3.40;;;2.70;;
12145;SDS011;6136;47.032;15.398;2023-08-12T13:12:24;3.42;;;2.60;;
12145;SDS011;6136;47.032;15.398;2023-08-12T13:14:53;3.75;;;3.22;;
12145;SDS011;6136;47.032;15.398;2023-08-12T13:17:21;3.38;;;3.08;;
12145;SDS011;6136;47.032;15.398;2023-08-12T13:19:49;2.60;;;2.40;;
12145;SDS011;6136;47.032;15.398;2023-08-12T13:22:17;2.92;;;2.60;;
12145;SDS011;6136;47.032;15.398;2023-08-12T13:24:45;2.70;;;2.50;;
12145;SDS011;6136;47.032;15.398;2023-08-12T13:27:15;3.08;;;2.75;;
12145;SDS011;6136;47.032;15.398;2023-08-12T13:29:43;2.50;;;2.30;;
12145;SDS011;6136;47.032;15.398;2023-08-12T13:32:11;2.53;;;2.33;;
12145;SDS011;6136;47.032;15.398;2023-08-12T13:34:40;2.55;;;2.30;;
12145;SDS011;6136;47.032;15.398;2023-08-12T13:37:09;3.83;;;2.40;;
12145;SDS011;6136;47.032;15.398;2023-08-12T13:39:38;3.83;;;2.70;;
12145;SDS011;6136;47.032;15.398;2023-08-12T13:42:06;3.28;;;2.75;;
12145;SDS011;6136;47.032;15.398;2023-08-12T13:44:35;4.35;;;3.78;;
12145;SDS011;6136;47.032;15.398;2023-08-12T13:47:04;2.72;;;2.53;;
12145;SDS011;6136;47.032;15.398;2023-08-12T13:49:32;2.70;;;2.50;;
12145;SDS011;6136;47.032;15.398;2023-08-12T13:52:00;6.63;;;2.20;;
12145;SDS011;6136;47.032;15.398;2023-08-12T13:54:29;2.95;;;2.30;;
12145;SDS011;6136;47.032;15.398;2023-08-12T13:56:58;2.60;;;2.30;;
12145;SDS011;6136;47.032;15.398;2023-08-12T13:59:27;2.40;;;2.20;;
12145;SDS011;6136;47.032;15.398;2023-08-12T14:01:56;2.38;;;2.17;;
12145;SDS011;6136;47.032;15.398;2023-08-12T14:04:25;2.40;;;2.20;;
12145;SDS011;6136;47.032;15.398;2023-08-12T14:06:53;2.45;;;2.20;;
12145;SDS011;6136;47.032;15.398;2023-08-12T14:09:21;3.63;;;2.35;;
12145;SDS011;6136;47.032;15.398;2023-08-12T14:11:49;2.65;;;2.30;;
12145;SDS011;6136;47.032;15.398;2023-08-12T14:14:17;6.47;;;4.68;;
12145;SDS011;6136;47.032;15.398;2023-08-12T14:16:45;2.25;;;2.05;;
12145;SDS011;6136;47.032;15.398;2023-08-12T14:19:15;3.60;;;2.47;;
12145;SDS011;6136;47.032;15.398;2023-08-12T14:21:44;2.30;;;2.20;;
12145;SDS011;6136;47.032;15.398;2023-08-12T14:24:12;2.45;;;2.30;;
12145;SDS011;6136;47.032;15.398;2023-08-12T14:26:40;3.78;;;2.78;;
12145;SDS011;6136;47.032;15.398;2023-08-12T14:29:09;2.50;;;2.30;;
12145;SDS011;6136;47.032;15.398;2023-08-12T14:31:37;2.20;;;2.00;;
12145;SDS011;6136;47.032;15.398;2023-08-12T14:34:05;4.05;;;2.60;;
12145;SDS011;6136;47.032;15.398;2023-08-12T14:36:34;2.65;;;2.30;;
12145;SDS011;6136;47.032;15.398;2023-08-12T14:39:03;2.25;;;2.08;;
12145;SDS011;6136;47.032;15.398;2023-08-12T14:41:31;4.03;;;2.42;;
12145;SDS011;6136;47.032;15.398;2023-08-12T14:43:59;2.67;;;2.33;;
12145;SDS011;6136;47.032;15.398;2023-08-12T14:46:28;2.50;;;2.13;;
12145;SDS011;6136;47.032;15.398;2023-08-12T14:48:56;2.42;;;2.15;;
12145;SDS011;6136;47.032;15.398;2023-08-12T14:51:24;2.92;;;2.65;;
12145;SDS011;6136;47.032;15.398;2023-08-12T14:53:54;4.05;;;2.60;;
12145;SDS011;6136;47.032;15.398;2023-08-12T14:56:22;3.03;;;2.67;;
12145;SDS011;6136;47.032;15.398;2023-08-12T14:58:50;2.35;;;2.15;;
12145;SDS011;6136;47.032;15.398;2023-08-12T15:01:18;2.65;;;2.30;;